Time;durP1;ratioP1;P1;durP2;ratioP2;P2;SDS_P1;SDS_P2;PMS_P1;PMS_P2;Temp;Humidity;BMP_temperature;BMP_pressure;BME280_temperature;BME280_humidity;BME280_pressure;Samples;Min_cycle;Max_cycle;Signal;HPM_P1;HPM_P2
2021/04/16 00:01:40;;;;;;;2.63;2.23;;;;;;;;;;5078883;28;20207;-60
2021/04/16 00:04:06;;;;;;;2.23;2.03;;;;;;;;;;5081804;28;20525;-62
2021/04/16 00:06:32;;;;;;;3.57;2.27;;;;;;;;;;5092429;28;20224;-61
2021/04/16 00:08:58;;;;;;;2.30;2.10;;;;;;;;;;5091651;28;20635;-61
2021/04/16 00:11:26;;;;;;;2.23;1.90;;;;;;;;;;5088126;28;20240;-61
2021/04/16 00:13:52;;;;;;;2.57;2.10;;;;;;;;;;5085723;28;20184;-60
2021/04/16 00:16:21;;;;;;;1.93;1.83;;;;;;;;;;5092589;28;20180;-60
2021/04/16 00:18:47;;;;;;;2.43;1.97;;;;;;;;;;5081055;28;20196;-63
2021/04/16 00:21:14;;;;;;;2.70;2.30;;;;;;;;;;5090504;28;20183;-60
2021/04/16 00:23:40;;;;;;;2.13;1.93;;;;;;;;;;5085912;28;20190;-60
2021/04/16 00:26:07;;;;;;;2.20;2.00;;;;;;;;;;5068217;28;20266;-60
2021/04/16 00:28:33;;;;;;;2.43;1.90;;;;;;;;;;5072153;28;20191;-60
2021/04/16 00:31:00;;;;;;;3.20;1.97;;;;;;;;;;5104436;28;20215;-60
2021/04/16 00:33:27;;;;;;;2.00;1.80;;;;;;;;;;5089668;28;20212;-60
2021/04/16 00:35:53;;;;;;;3.73;2.43;;;;;;;;;;5087027;28;20647;-60
2021/04/16 00:38:20;;;;;;;1.63;1.53;;;;;;;;;;5054886;28;20176;-61
2021/04/16 00:41:00;;;;;;;2.77;2.07;;;;;;;;;;5062647;28;20211;-60
2021/04/16 00:43:28;;;;;;;3.37;2.53;;;;;;;;;;5078462;28;20220;-61
2021/04/16 00:45:56;;;;;;;2.27;2.00;;;;;;;;;;5091569;28;20175;-60
2021/04/16 00:48:24;;;;;;;3.17;2.40;;;;;;;;;;5085409;28;20177;-60
2021/04/16 00:50:52;;;;;;;2.43;2.20;;;;;;;;;;5066959;28;20195;-60
2021/04/16 00:53:19;;;;;;;2.73;2.33;;;;;;;;;;5079808;28;20207;-60
2021/04/16 00:55:46;;;;;;;2.20;1.93;;;;;;;;;;5080566;28;20184;-61
2021/04/16 00:58:12;;;;;;;2.57;2.30;;;;;;;;;;5056073;28;20259;-60
2021/04/16 01:00:38;;;;;;;3.23;2.23;;;;;;;;;;5085701;28;20219;-61
2021/04/16 01:03:07;;;;;;;2.43;2.00;;;;;;;;;;5065019;28;20236;-60
2021/04/16 01:05:33;;;;;;;2.40;2.20;;;;;;;;;;5086807;28;20626;-60
2021/04/16 01:07:59;;;;;;;3.20;2.20;;;;;;;;;;5091247;28;20209;-63
2021/04/16 01:10:26;;;;;;;3.33;2.40;;;;;;;;;;5083636;28;20176;-60
2021/04/16 01:12:52;;;;;;;2.77;2.20;;;;;;;;;;5091437;28;20261;-60
2021/04/16 01:15:31;;;;;;;2.77;2.20;;;;;;;;;;5091352;28;20175;-61
2021/04/16 01:17:59;;;;;;;2.47;2.00;;;;;;;;;;5079958;28;20220;-60
2021/04/16 01:20:27;;;;;;;2.40;2.17;;;;;;;;;;5088458;28;20666;-63
2021/04/16 01:22:53;;;;;;;1.93;1.77;;;;;;;;;;5083175;28;20263;-60
2021/04/16 01:25:20;;;;;;;2.20;1.87;;;;;;;;;;5081699;28;20168;-60
2021/04/16 01:27:46;;;;;;;2.10;1.90;;;;;;;;;;5074749;28;20176;-60
2021/04/16 01:30:14;;;;;;;2.33;2.13;;;;;;;;;;5081525;28;20297;-60
2021/04/16 01:32:40;;;;;;;3.07;2.00;;;;;;;;;;5086317;28;20631;-62
2021/04/16 01:35:11;;;;;;;2.37;2.17;;;;;;;;;;5086110;28;20182;-60
2021/04/16 01:37:37;;;;;;;2.70;2.17;;;;;;;;;;5088267;28;20175;-60
2021/04/16 01:40:04;;;;;;;3.47;2.20;;;;;;;;;;5090014;28;20199;-60
2021/04/16 01:42:30;;;;;;;4.40;2.40;;;;;;;;;;5091077;28;20768;-61
2021/04/16 01:44:56;;;;;;;2.03;1.83;;;;;;;;;;5090572;28;20268;-61
2021/04/16 01:47:22;;;;;;;2.57;2.20;;;;;;;;;;5059288;28;20242;-60
2021/04/16 01:49:50;;;;;;;1.93;1.73;;;;;;;;;;5059880;28;20253;-61
2021/04/16 01:52:26;;;;;;;2.60;2.20;;;;;;;;;;5088807;28;20260;-61
2021/04/16 01:54:53;;;;;;;2.40;2.20;;;;;;;;;;5085922;28;20172;-63
2021/04/16 01:57:30;;;;;;;2.73;2.13;;;;;;;;;;5080736;28;20212;-60
2021/04/16 01:59:56;;;;;;;3.43;2.30;;;;;;;;;;5059024;28;20207;-60
2021/04/16 02:02:24;;;;;;;2.30;1.80;;;;;;;;;;5070105;28;20640;-60
2021/04/16 02:04:51;;;;;;;2.60;2.03;;;;;;;;;;5068597;28;20267;-62
2021/04/16 02:07:17;;;;;;;2.13;1.93;;;;;;;;;;5084307;28;20646;-60
2021/04/16 02:09:43;;;;;;;2.27;2.07;;;;;;;;;;5072524;28;20192;-60
2021/04/16 02:12:11;;;;;;;3.27;2.30;;;;;;;;;;5087091;28;20202;-61
2021/04/16 02:14:38;;;;;;;2.00;1.80;;;;;;;;;;5072308;28;20188;-60
2021/04/16 02:17:06;;;;;;;2.77;2.00;;;;;;;;;;5090263;28;20201;-60
2021/04/16 02:19:32;;;;;;;2.43;1.90;;;;;;;;;;5090558;28;20236;-61
2021/04/16 02:21:58;;;;;;;2.20;1.90;;;;;;;;;;5074283;28;20180;-60
2021/04/16 02:24:24;;;;;;;2.60;2.07;;;;;;;;;;5088997;28;20259;-61
2021/04/16 02:26:50;;;;;;;2.10;1.90;;;;;;;;;;5083006;28;20183;-60
2021/04/16 02:29:17;;;;;;;2.13;1.93;;;;;;;;;;5059645;28;20190;-61
2021/04/16 02:31:44;;;;;;;2.93;2.20;;;;;;;;;;5090297;28;20212;-61
2021/04/16 02:34:11;;;;;;;2.13;1.93;;;;;;;;;;5071394;28;20202;-60
2021/04/16 02:36:37;;;;;;;2.20;2.00;;;;;;;;;;5079558;28;20190;-61
2021/04/16 02:39:05;;;;;;;2.03;1.83;;;;;;;;;;5085421;28;20235;-61
2021/04/16 02:41:31;;;;;;;3.03;1.90;;;;;;;;;;5052315;28;20195;-62
2021/04/16 02:43:57;;;;;;;2.80;2.50;;;;;;;;;;5077247;28;20198;-60
2021/04/16 02:46:23;;;;;;;2.67;2.00;;;;;;;;;;5071757;28;20180;-61
2021/04/16 02:48:49;;;;;;;2.03;1.77;;;;;;;;;;5064320;28;20184;-61
2021/04/16 02:51:15;;;;;;;2.03;1.83;;;;;;;;;;5088487;28;20214;-60
2021/04/16 02:53:41;;;;;;;2.70;1.83;;;;;;;;;;5090165;28;20176;-61
2021/04/16 02:56:07;;;;;;;2.30;2.10;;;;;;;;;;5074532;28;20353;-61
2021/04/16 02:58:33;;;;;;;2.30;2.10;;;;;;;;;;5090338;28;20164;-60
2021/04/16 03:00:59;;;;;;;2.20;2.00;;;;;;;;;;5084261;28;20190;-60
2021/04/16 03:03:25;;;;;;;2.43;1.97;;;;;;;;;;5082437;28;20206;-60
2021/04/16 03:05:52;;;;;;;4.33;1.90;;;;;;;;;;5080485;28;20185;-63
2021/04/16 03:08:18;;;;;;;2.37;1.80;;;;;;;;;;5083813;28;20179;-60
2021/04/16 03:10:44;;;;;;;1.80;1.70;;;;;;;;;;5082788;28;20259;-60
2021/04/16 03:13:10;;;;;;;3.03;1.90;;;;;;;;;;5070134;28;20210;-62
2021/04/16 03:15:36;;;;;;;2.27;2.07;;;;;;;;;;5086680;28;20207;-61
2021/04/16 03:18:03;;;;;;;2.33;2.13;;;;;;;;;;5085379;28;20509;-61
2021/04/16 03:20:29;;;;;;;2.30;2.10;;;;;;;;;;5086153;28;20199;-60
2021/04/16 03:22:55;;;;;;;1.90;1.70;;;;;;;;;;5091836;28;20187;-60
2021/04/16 03:25:22;;;;;;;2.23;1.97;;;;;;;;;;5073841;28;20180;-61
2021/04/16 03:27:48;;;;;;;2.70;2.17;;;;;;;;;;5080059;28;20269;-63
2021/04/16 03:30:17;;;;;;;2.33;2.00;;;;;;;;;;5083221;28;20226;-60
2021/04/16 03:32:43;;;;;;;2.30;1.87;;;;;;;;;;5074575;28;20184;-60
2021/04/16 03:35:09;;;;;;;2.30;2.10;;;;;;;;;;5084976;28;20862;-62
2021/04/16 03:37:35;;;;;;;2.77;2.20;;;;;;;;;;5083538;28;20525;-61
2021/04/16 03:40:01;;;;;;;1.90;1.80;;;;;;;;;;5086301;28;20204;-60
2021/04/16 03:42:27;;;;;;;2.03;1.83;;;;;;;;;;5092452;28;20172;-60
2021/04/16 03:44:53;;;;;;;2.20;2.00;;;;;;;;;;5091195;28;20176;-60
2021/04/16 03:47:19;;;;;;;2.47;2.20;;;;;;;;;;5054990;28;20184;-61
2021/04/16 03:49:45;;;;;;;2.87;1.70;;;;;;;;;;5059569;28;20203;-60
2021/04/16 03:52:11;;;;;;;2.70;2.30;;;;;;;;;;5066726;28;20194;-63
2021/04/16 03:54:39;;;;;;;2.33;2.10;;;;;;;;;;5085796;28;20176;-61
2021/04/16 03:57:08;;;;;;;3.50;2.23;;;;;;;;;;5092112;28;20604;-60
2021/04/16 03:59:34;;;;;;;1.87;1.77;;;;;;;;;;5086891;28;20222;-61
2021/04/16 04:02:00;;;;;;;2.40;1.93;;;;;;;;;;5092848;28;20230;-60
2021/04/16 04:04:26;;;;;;;2.63;1.97;;;;;;;;;;5064387;28;20221;-60
2021/04/16 04:06:52;;;;;;;2.37;1.63;;;;;;;;;;5081323;28;20179;-61
2021/04/16 04:09:18;;;;;;;3.67;2.00;;;;;;;;;;5061014;28;20556;-61
2021/04/16 04:11:44;;;;;;;2.50;2.10;;;;;;;;;;5070913;28;20177;-61
2021/04/16 04:14:10;;;;;;;2.37;1.97;;;;;;;;;;5076938;28;20184;-60
2021/04/16 04:16:52;;;;;;;4.77;1.97;;;;;;;;;;5091393;28;20180;-63
2021/04/16 04:19:19;;;;;;;2.17;1.70;;;;;;;;;;5071867;28;20265;-60
2021/04/16 04:21:46;;;;;;;4.73;2.13;;;;;;;;;;5087421;28;20169;-61
2021/04/16 04:24:12;;;;;;;1.90;1.80;;;;;;;;;;5070584;28;20182;-64
2021/04/16 04:26:38;;;;;;;2.17;1.97;;;;;;;;;;5071742;28;20184;-61
2021/04/16 04:29:04;;;;;;;2.33;1.90;;;;;;;;;;5086837;28;20179;-60
2021/04/16 04:31:30;;;;;;;2.23;2.03;;;;;;;;;;5081733;28;20219;-60
2021/04/16 04:33:56;;;;;;;3.00;2.53;;;;;;;;;;5079327;28;20180;-60
2021/04/16 04:36:22;;;;;;;2.10;1.90;;;;;;;;;;5081234;28;20192;-60
2021/04/16 04:38:51;;;;;;;2.40;2.20;;;;;;;;;;5088974;28;20188;-61
2021/04/16 04:41:18;;;;;;;2.33;1.70;;;;;;;;;;5089701;28;20187;-60
2021/04/16 04:43:44;;;;;;;2.17;1.90;;;;;;;;;;5091786;28;20175;-60
2021/04/16 04:46:10;;;;;;;1.97;1.77;;;;;;;;;;5090912;28;20172;-61
2021/04/16 04:48:36;;;;;;;2.43;1.87;;;;;;;;;;5069179;28;20186;-61
2021/04/16 04:51:02;;;;;;;2.93;2.17;;;;;;;;;;5088481;28;20229;-63
2021/04/16 04:53:29;;;;;;;2.93;2.30;;;;;;;;;;5090430;28;20182;-62
2021/04/16 04:55:55;;;;;;;2.20;2.00;;;;;;;;;;5058570;28;20438;-60
2021/04/16 04:58:21;;;;;;;2.20;2.00;;;;;;;;;;5068175;28;20183;-60
2021/04/16 05:00:47;;;;;;;2.80;2.07;;;;;;;;;;5077671;28;20204;-61
2021/04/16 05:03:13;;;;;;;2.00;1.80;;;;;;;;;;5071962;28;20245;-60
2021/04/16 05:05:39;;;;;;;2.20;2.00;;;;;;;;;;5083149;28;20176;-61
2021/04/16 05:08:06;;;;;;;1.90;1.67;;;;;;;;;;5082208;28;20164;-60
2021/04/16 05:10:32;;;;;;;2.13;1.93;;;;;;;;;;5086905;28;20179;-61
2021/04/16 05:12:58;;;;;;;2.63;2.17;;;;;;;;;;5054567;28;20183;-61
2021/04/16 05:15:24;;;;;;;2.60;2.03;;;;;;;;;;5072593;28;20536;-60
2021/04/16 05:17:50;;;;;;;2.13;1.87;;;;;;;;;;5061951;28;20225;-60
2021/04/16 05:20:17;;;;;;;2.67;2.10;;;;;;;;;;5063230;28;20680;-60
2021/04/16 05:22:43;;;;;;;2.87;2.40;;;;;;;;;;5085013;28;20180;-61
2021/04/16 05:25:10;;;;;;;2.40;2.20;;;;;;;;;;5083210;28;20534;-60
2021/04/16 05:27:36;;;;;;;2.10;1.83;;;;;;;;;;5082604;28;20255;-60
2021/04/16 05:30:03;;;;;;;2.33;2.13;;;;;;;;;;5060263;28;20320;-60
2021/04/16 05:32:29;;;;;;;2.53;2.30;;;;;;;;;;5082199;28;20698;-61
2021/04/16 05:34:55;;;;;;;2.53;2.17;;;;;;;;;;5081132;28;20257;-61
2021/04/16 05:37:21;;;;;;;4.47;1.87;;;;;;;;;;5071614;28;20250;-60
2021/04/16 05:39:50;;;;;;;3.80;2.20;;;;;;;;;;5086015;28;20220;-60
2021/04/16 05:42:16;;;;;;;2.43;2.23;;;;;;;;;;5061043;28;20249;-61
2021/04/16 05:44:42;;;;;;;2.53;2.07;;;;;;;;;;5076312;28;20739;-60
2021/04/16 05:47:08;;;;;;;2.20;2.00;;;;;;;;;;5085192;28;20180;-61
2021/04/16 05:49:34;;;;;;;2.83;2.20;;;;;;;;;;5056420;28;20202;-60
2021/04/16 05:52:00;;;;;;;2.60;1.70;;;;;;;;;;5070320;28;20188;-60
2021/04/16 05:54:27;;;;;;;2.77;2.07;;;;;;;;;;5074561;28;20631;-60
2021/04/16 05:56:53;;;;;;;4.43;2.83;;;;;;;;;;5089251;28;20595;-60
2021/04/16 05:59:19;;;;;;;4.83;2.50;;;;;;;;;;5065351;28;20290;-60
2021/04/16 06:01:45;;;;;;;3.20;2.20;;;;;;;;;;5090431;28;20255;-60
2021/04/16 06:04:19;;;;;;;4.70;3.10;;;;;;;;;;5090137;28;20172;-60
2021/04/16 06:06:45;;;;;;;2.60;2.40;;;;;;;;;;5087431;28;20179;-60
2021/04/16 06:09:11;;;;;;;3.13;2.40;;;;;;;;;;5082098;28;20191;-60
2021/04/16 06:11:37;;;;;;;3.53;2.40;;;;;;;;;;5071395;28;20175;-60
2021/04/16 06:14:04;;;;;;;3.47;2.33;;;;;;;;;;5065893;28;20184;-61
2021/04/16 06:16:30;;;;;;;3.40;2.30;;;;;;;;;;5083268;28;20584;-60
2021/04/16 06:18:56;;;;;;;2.93;2.30;;;;;;;;;;5080684;28;20184;-61
2021/04/16 06:21:22;;;;;;;2.90;2.27;;;;;;;;;;5089309;28;20172;-60
2021/04/16 06:23:48;;;;;;;2.53;2.33;;;;;;;;;;5089408;28;20230;-60
2021/04/16 06:26:14;;;;;;;3.20;2.67;;;;;;;;;;5089087;28;20195;-60
2021/04/16 06:28:40;;;;;;;4.40;2.67;;;;;;;;;;5089576;28;20417;-61
2021/04/16 06:31:06;;;;;;;3.63;2.73;;;;;;;;;;5071453;28;20272;-60
2021/04/16 06:33:33;;;;;;;3.43;2.33;;;;;;;;;;5086308;28;20534;-60
2021/04/16 06:36:01;;;;;;;2.90;2.27;;;;;;;;;;5075422;28;20246;-60
2021/04/16 06:38:30;;;;;;;2.83;2.43;;;;;;;;;;5070726;28;20260;-61
2021/04/16 06:40:56;;;;;;;3.57;2.57;;;;;;;;;;5065726;28;20207;-60
2021/04/16 06:43:24;;;;;;;4.10;2.60;;;;;;;;;;5062147;28;20198;-61
2021/04/16 06:45:56;;;;;;;3.50;2.60;;;;;;;;;;5091333;28;21731;-62
2021/04/16 06:48:22;;;;;;;4.33;2.37;;;;;;;;;;5074288;28;20173;-60
2021/04/16 06:50:48;;;;;;;2.57;2.30;;;;;;;;;;5074200;28;20196;-61
2021/04/16 06:53:17;;;;;;;3.33;2.73;;;;;;;;;;5094180;28;20187;-62
2021/04/16 06:56:02;;;;;;;4.63;3.13;;;;;;;;;;5088713;28;20195;-60
2021/04/16 06:58:49;;;;;;;3.57;2.87;;;;;;;;;;5094274;28;20225;-60
2021/04/16 07:01:25;;;;;;;4.00;3.53;;;;;;;;;;5094309;28;20683;-60
2021/04/16 07:04:02;;;;;;;4.77;3.10;;;;;;;;;;5072859;28;20215;-61
2021/04/16 07:06:31;;;;;;;4.07;3.10;;;;;;;;;;5079639;28;20187;-62
2021/04/16 07:09:06;;;;;;;3.57;2.87;;;;;;;;;;5083240;28;20613;-60
2021/04/16 07:11:34;;;;;;;3.07;2.60;;;;;;;;;;5084620;28;20180;-60
2021/04/16 07:14:01;;;;;;;3.60;2.97;;;;;;;;;;5074027;28;20602;-60
2021/04/16 07:16:30;;;;;;;4.03;2.83;;;;;;;;;;5084337;28;20186;-60
2021/04/16 07:19:06;;;;;;;4.07;3.63;;;;;;;;;;5092693;28;20228;-60
2021/04/16 07:21:32;;;;;;;4.80;3.10;;;;;;;;;;5079858;28;20168;-63
2021/04/16 07:24:00;;;;;;;5.10;3.00;;;;;;;;;;5088552;28;20697;-61
2021/04/16 07:26:33;;;;;;;6.17;2.60;;;;;;;;;;5085461;28;20229;-60
2021/04/16 07:28:59;;;;;;;5.77;3.43;;;;;;;;;;5073881;28;20191;-63
2021/04/16 07:31:26;;;;;;;4.53;3.40;;;;;;;;;;5088943;28;20277;-61
2021/04/16 07:33:53;;;;;;;3.40;3.10;;;;;;;;;;5088969;28;20200;-60
2021/04/16 07:36:29;;;;;;;3.93;3.07;;;;;;;;;;5062062;28;20180;-60
2021/04/16 07:39:00;;;;;;;3.27;2.57;;;;;;;;;;5065794;28;20187;-61
2021/04/16 07:41:28;;;;;;;3.37;2.87;;;;;;;;;;5072695;28;20179;-61
2021/04/16 07:43:56;;;;;;;4.30;3.33;;;;;;;;;;5060174;28;20183;-60
2021/04/16 07:46:30;;;;;;;3.50;2.50;;;;;;;;;;5081239;28;20183;-60
2021/04/16 07:49:08;;;;;;;3.80;3.10;;;;;;;;;;5090962;28;20198;-61
2021/04/16 07:51:34;;;;;;;3.53;2.80;;;;;;;;;;5086227;28;20723;-61
2021/04/16 07:54:13;;;;;;;2.57;2.37;;;;;;;;;;5091614;28;20237;-61
2021/04/16 07:56:39;;;;;;;3.73;2.93;;;;;;;;;;5070646;28;20230;-60
2021/04/16 07:59:10;;;;;;;2.77;2.30;;;;;;;;;;5089468;28;20211;-60
2021/04/16 08:01:38;;;;;;;4.23;2.83;;;;;;;;;;5069350;28;20184;-61
2021/04/16 08:04:06;;;;;;;3.37;3.07;;;;;;;;;;5089613;28;20176;-60
2021/04/16 08:06:32;;;;;;;3.13;2.83;;;;;;;;;;5090914;28;20642;-61
2021/04/16 08:08:58;;;;;;;5.10;3.07;;;;;;;;;;5089540;28;20191;-62
2021/04/16 08:11:26;;;;;;;3.47;2.63;;;;;;;;;;5071906;28;20187;-60
2021/04/16 08:13:54;;;;;;;3.20;2.87;;;;;;;;;;5091569;28;20324;-60
2021/04/16 08:16:20;;;;;;;3.37;2.70;;;;;;;;;;5071933;28;20176;-61
2021/04/16 08:19:02;;;;;;;3.90;2.70;;;;;;;;;;5091743;28;20566;-60
2021/04/16 08:21:28;;;;;;;3.43;2.80;;;;;;;;;;5082336;28;20257;-60
2021/04/16 08:24:08;;;;;;;4.80;3.13;;;;;;;;;;5072620;28;20176;-61
2021/04/16 08:26:37;;;;;;;4.97;2.80;;;;;;;;;;5084066;28;20232;-61
2021/04/16 08:29:03;;;;;;;4.13;3.00;;;;;;;;;;5085122;28;20184;-61
2021/04/16 08:31:50;;;;;;;3.07;2.70;;;;;;;;;;5070776;28;20211;-61
2021/04/16 08:34:20;;;;;;;3.20;2.67;;;;;;;;;;5072920;28;20632;-60
2021/04/16 08:36:47;;;;;;;5.23;2.83;;;;;;;;;;5087771;28;20175;-61
2021/04/16 08:39:34;;;;;;;3.73;2.80;;;;;;;;;;5090517;28;20598;-60
2021/04/16 08:42:20;;;;;;;3.07;2.40;;;;;;;;;;5077806;28;20666;-61
2021/04/16 08:44:52;;;;;;;4.90;2.73;;;;;;;;;;5076719;28;20172;-61
2021/04/16 08:47:25;;;;;;;4.13;2.70;;;;;;;;;;5088524;28;20536;-61
2021/04/16 08:49:52;;;;;;;3.47;3.10;;;;;;;;;;5090607;28;20208;-61
2021/04/16 08:52:21;;;;;;;2.13;1.93;;;;;;;;;;5091854;28;20225;-61
2021/04/16 08:54:49;;;;;;;3.07;2.37;;;;;;;;;;5082059;28;20194;-61
2021/04/16 08:57:28;;;;;;;3.07;2.43;;;;;;;;;;5061736;28;20636;-61
2021/04/16 08:59:54;;;;;;;4.20;2.90;;;;;;;;;;5061707;28;20192;-62
2021/04/16 09:02:25;;;;;;;2.80;2.50;;;;;;;;;;5067831;28;20471;-61
2021/04/16 09:04:56;;;;;;;3.03;2.23;;;;;;;;;;5092176;28;20175;-61
2021/04/16 09:07:54;;;;;;;2.37;2.17;;;;;;;;;;5069301;28;20263;-61
2021/04/16 09:10:20;;;;;;;3.10;2.37;;;;;;;;;;5036671;28;20208;-62
2021/04/16 09:12:49;;;;;;;3.33;2.07;;;;;;;;;;5071173;28;20190;-61
2021/04/16 09:15:21;;;;;;;2.50;2.27;;;;;;;;;;5070966;28;20181;-61
2021/04/16 09:17:53;;;;;;;2.17;1.97;;;;;;;;;;5073083;28;20329;-61
2021/04/16 09:20:20;;;;;;;2.70;2.43;;;;;;;;;;5072572;28;20207;-61
2021/04/16 09:22:47;;;;;;;3.70;2.20;;;;;;;;;;5086774;28;20173;-62
2021/04/16 09:25:32;;;;;;;2.70;2.20;;;;;;;;;;5069288;28;20211;-61
2021/04/16 09:28:16;;;;;;;2.57;2.20;;;;;;;;;;5073526;28;20180;-61
2021/04/16 09:30:42;;;;;;;3.10;1.90;;;;;;;;;;5079290;28;20273;-61
2021/04/16 09:33:22;;;;;;;2.17;1.97;;;;;;;;;;5090506;28;20179;-62
2021/04/16 09:35:57;;;;;;;3.40;2.23;;;;;;;;;;5090162;28;20577;-61
2021/04/16 09:38:26;;;;;;;2.53;2.30;;;;;;;;;;5055168;28;20179;-61
2021/04/16 09:41:11;;;;;;;2.83;2.23;;;;;;;;;;5070582;28;20207;-61
2021/04/16 09:43:38;;;;;;;2.37;2.10;;;;;;;;;;5075362;28;20172;-61
2021/04/16 09:46:26;;;;;;;2.43;1.80;;;;;;;;;;5063744;28;20172;-61
2021/04/16 09:48:52;;;;;;;2.50;1.80;;;;;;;;;;5074876;28;20616;-63
2021/04/16 09:51:28;;;;;;;2.17;1.97;;;;;;;;;;5087911;28;20186;-60
2021/04/16 09:54:09;;;;;;;2.37;1.80;;;;;;;;;;5082111;28;20184;-59
2021/04/16 09:56:36;;;;;;;2.03;1.50;;;;;;;;;;5077142;28;20258;-59
2021/04/16 09:59:09;;;;;;;2.67;1.83;;;;;;;;;;5083010;28;20303;-59
2021/04/16 10:01:55;;;;;;;1.83;1.60;;;;;;;;;;5068058;28;20642;-59
2021/04/16 10:04:40;;;;;;;1.60;1.50;;;;;;;;;;5076193;28;20199;-59
2021/04/16 10:07:09;;;;;;;1.90;1.70;;;;;;;;;;5068591;28;20275;-61
2021/04/16 10:09:35;;;;;;;3.27;2.23;;;;;;;;;;5075945;28;20183;-58
2021/04/16 10:12:03;;;;;;;3.03;1.50;;;;;;;;;;5074696;28;20219;-59
2021/04/16 10:14:32;;;;;;;1.50;1.40;;;;;;;;;;5054151;28;20522;-60
2021/04/16 10:17:17;;;;;;;1.53;1.23;;;;;;;;;;5087491;28;20282;-60
2021/04/16 10:20:05;;;;;;;3.07;1.50;;;;;;;;;;5080084;28;20603;-60
2021/04/16 10:22:37;;;;;;;2.23;1.30;;;;;;;;;;5087529;28;20180;-60
2021/04/16 10:34:53;;;;;;;3.13;1.60;;;;;;;;;;5089029;28;20202;-56
2021/04/16 10:43:43;;;;;;;2.27;1.30;;;;;;;;;;5088593;28;20627;-60
2021/04/16 10:49:31;;;;;;;1.50;1.40;;;;;;;;;;5083217;28;20276;-61
2021/04/16 12:38:58;;;;;;;3.30;1.90;;;;;;;;;;5083044;28;20737;-61
2021/04/16 12:41:24;;;;;;;2.23;1.80;;;;;;;;;;5073135;28;20194;-61
2021/04/16 12:43:51;;;;;;;2.73;1.70;;;;;;;;;;5071835;28;20176;-61
2021/04/16 12:46:19;;;;;;;13.63;2.60;;;;;;;;;;5085948;28;20179;-61
2021/04/16 12:48:45;;;;;;;2.23;1.90;;;;;;;;;;5079537;28;20225;-62
2021/04/16 12:51:11;;;;;;;2.00;1.80;;;;;;;;;;5091459;28;20203;-62
2021/04/16 12:53:37;;;;;;;2.80;2.07;;;;;;;;;;5083970;28;20176;-61
2021/04/16 12:56:05;;;;;;;1.70;1.60;;;;;;;;;;5088022;28;20630;-62
2021/04/16 12:58:32;;;;;;;6.53;2.00;;;;;;;;;;5085281;28;20245;-61
2021/04/16 13:01:01;;;;;;;1.83;1.70;;;;;;;;;;5076251;28;20235;-61
2021/04/16 13:03:32;;;;;;;1.80;1.70;;;;;;;;;;5071908;28;20215;-62
2021/04/16 13:05:58;;;;;;;1.90;1.73;;;;;;;;;;5081819;28;20622;-62
2021/04/16 13:08:24;;;;;;;2.33;1.80;;;;;;;;;;5083523;28;20195;-62
2021/04/16 13:10:50;;;;;;;3.73;1.93;;;;;;;;;;5079759;28;20180;-62
2021/04/16 13:13:17;;;;;;;6.60;2.20;;;;;;;;;;5089998;28;20250;-62
2021/04/16 13:15:43;;;;;;;3.10;2.20;;;;;;;;;;5090024;28;20188;-62
2021/04/16 13:18:15;;;;;;;4.27;2.10;;;;;;;;;;5090741;28;20673;-62
2021/04/16 13:20:43;;;;;;;3.47;2.07;;;;;;;;;;5089903;28;20697;-62
2021/04/16 13:23:09;;;;;;;4.03;2.27;;;;;;;;;;5090322;28;20180;-62
2021/04/16 13:25:35;;;;;;;2.30;2.10;;;;;;;;;;5071805;28;20230;-62
2021/04/16 13:28:01;;;;;;;2.30;2.00;;;;;;;;;;5071388;28;20176;-63
2021/04/16 13:30:29;;;;;;;10.87;2.40;;;;;;;;;;5085100;28;20552;-63
2021/04/16 13:32:56;;;;;;;2.43;2.23;;;;;;;;;;5068118;28;20534;-62
2021/04/16 13:35:29;;;;;;;3.13;2.13;;;;;;;;;;5081036;28;20187;-64
2021/04/16 13:37:55;;;;;;;1.93;1.83;;;;;;;;;;5082463;28;20180;-62
2021/04/16 13:40:22;;;;;;;3.83;1.70;;;;;;;;;;5089842;28;20230;-63
2021/04/16 13:42:48;;;;;;;2.50;1.90;;;;;;;;;;5072132;28;20213;-63
2021/04/16 13:45:14;;;;;;;3.43;2.37;;;;;;;;;;5067681;28;20634;-62
2021/04/16 13:47:44;;;;;;;1.83;1.70;;;;;;;;;;5057886;28;20207;-62
2021/04/16 13:50:11;;;;;;;2.07;1.87;;;;;;;;;;5069064;28;20298;-62
2021/04/16 13:52:37;;;;;;;3.77;2.10;;;;;;;;;;5085765;28;20237;-62
2021/04/16 13:55:04;;;;;;;2.63;2.00;;;;;;;;;;5069930;28;20199;-63
2021/04/16 13:57:30;;;;;;;2.23;2.03;;;;;;;;;;5090672;28;20258;-62
2021/04/16 13:59:56;;;;;;;2.43;2.30;;;;;;;;;;5088286;28;20199;-62
2021/04/16 14:02:33;;;;;;;2.50;2.13;;;;;;;;;;5086313;28;20177;-62
2021/04/16 14:05:00;;;;;;;1.93;1.73;;;;;;;;;;5078223;28;20890;-62
2021/04/16 14:07:27;;;;;;;2.53;1.87;;;;;;;;;;5078861;28;20560;-63
2021/04/16 14:09:53;;;;;;;2.90;1.97;;;;;;;;;;5086526;28;20222;-62
2021/04/16 14:12:19;;;;;;;2.93;1.70;;;;;;;;;;5062682;28;20260;-62
2021/04/16 14:14:46;;;;;;;5.40;1.87;;;;;;;;;;5061295;28;20734;-61
2021/04/16 14:17:14;;;;;;;3.00;2.30;;;;;;;;;;5065891;28;20204;-63
2021/04/16 14:20:02;;;;;;;2.30;2.10;;;;;;;;;;5075637;28;20195;-62
2021/04/16 14:22:33;;;;;;;10.40;2.90;;;;;;;;;;5077074;28;20446;-61
2021/04/16 14:24:59;;;;;;;3.23;1.97;;;;;;;;;;5063650;28;20195;-62
2021/04/16 14:27:28;;;;;;;3.30;1.77;;;;;;;;;;5063936;28;20180;-61
2021/04/16 14:29:54;;;;;;;3.17;1.73;;;;;;;;;;5077811;28;20220;-61
2021/04/16 14:32:24;;;;;;;2.20;2.00;;;;;;;;;;5081429;28;20179;-62
2021/04/16 14:34:51;;;;;;;1.90;1.70;;;;;;;;;;5075141;28;20547;-61
2021/04/16 14:37:17;;;;;;;2.50;1.97;;;;;;;;;;5080185;28;20168;-59
2021/04/16 14:39:43;;;;;;;2.40;2.08;;;;;;;;;;5080422;28;20445;-63
2021/04/16 14:42:12;;;;;;;3.07;2.00;;;;;;;;;;5053218;28;20169;-62
2021/04/16 14:44:38;;;;;;;2.20;2.00;;;;;;;;;;5063055;28;20222;-62
2021/04/16 14:47:07;;;;;;;2.37;1.70;;;;;;;;;;5080076;28;20176;-62
2021/04/16 14:49:33;;;;;;;2.60;2.40;;;;;;;;;;5085129;28;20212;-62
2021/04/16 14:52:00;;;;;;;3.20;2.10;;;;;;;;;;5081631;28;20408;-62
2021/04/16 14:54:26;;;;;;;2.50;1.80;;;;;;;;;;5083777;28;20199;-61
2021/04/16 14:56:52;;;;;;;3.93;2.20;;;;;;;;;;5083497;28;20180;-62
2021/04/16 14:59:23;;;;;;;4.07;2.50;;;;;;;;;;5061072;28;20266;-62
2021/04/16 15:01:51;;;;;;;2.70;2.10;;;;;;;;;;5068609;28;20188;-62
2021/04/16 15:04:17;;;;;;;4.53;2.20;;;;;;;;;;5070470;28;20382;-63
2021/04/16 15:06:44;;;;;;;3.50;1.97;;;;;;;;;;5087422;28;20234;-62
2021/04/16 15:09:12;;;;;;;2.10;1.90;;;;;;;;;;5078807;28;20168;-60
2021/04/16 15:11:39;;;;;;;3.27;1.97;;;;;;;;;;5083966;28;20226;-61
2021/04/16 15:14:06;;;;;;;2.30;2.10;;;;;;;;;;5078174;28;20252;-61
2021/04/16 15:16:34;;;;;;;2.43;1.77;;;;;;;;;;5072019;28;20184;-60
2021/04/16 15:19:00;;;;;;;3.27;1.90;;;;;;;;;;5059088;28;20184;-60
2021/04/16 15:21:27;;;;;;;3.53;2.03;;;;;;;;;;5088528;28;20282;-60
2021/04/16 15:23:54;;;;;;;2.43;2.03;;;;;;;;;;5086976;28;20686;-60
2021/04/16 15:26:24;;;;;;;1.93;1.57;;;;;;;;;;5087342;28;20219;-60
2021/04/16 15:28:54;;;;;;;2.97;2.17;;;;;;;;;;5072565;28;20164;-61
2021/04/16 15:31:24;;;;;;;5.07;2.10;;;;;;;;;;5086647;28;20683;-60
2021/04/16 15:47:44;;;;;;;2.40;2.20;;;;;;;;;;5079976;28;20214;-59
2021/04/16 15:50:13;;;;;;;2.63;2.20;;;;;;;;;;5069649;28;20200;-60
2021/04/16 15:52:39;;;;;;;4.03;2.13;;;;;;;;;;5064889;28;20631;-60
2021/04/16 15:55:06;;;;;;;3.23;2.20;;;;;;;;;;5078025;28;20180;-60
2021/04/16 15:57:33;;;;;;;2.67;2.20;;;;;;;;;;5088708;28;20180;-60
2021/04/16 15:59:59;;;;;;;2.93;2.37;;;;;;;;;;5068802;28;20239;-61
2021/04/16 16:02:27;;;;;;;4.07;2.50;;;;;;;;;;5060739;28;20172;-60
2021/04/16 16:04:53;;;;;;;2.17;2.07;;;;;;;;;;5079795;28;20173;-62
2021/04/16 16:07:19;;;;;;;6.70;2.23;;;;;;;;;;5075947;28;20172;-60
2021/04/16 16:09:45;;;;;;;3.87;2.20;;;;;;;;;;5060500;28;20183;-59
2021/04/16 16:12:14;;;;;;;4.10;2.50;;;;;;;;;;5064506;28;20194;-60
2021/04/16 16:14:55;;;;;;;2.67;2.40;;;;;;;;;;5057649;28;20707;-59
2021/04/16 16:17:23;;;;;;;3.17;2.10;;;;;;;;;;5062492;28;20370;-60
2021/04/16 16:19:49;;;;;;;2.93;2.40;;;;;;;;;;5087283;28;20662;-60
2021/04/16 16:22:15;;;;;;;3.97;2.30;;;;;;;;;;5079833;28;20199;-60
2021/04/16 16:24:41;;;;;;;3.17;2.37;;;;;;;;;;5057538;28;20184;-60
2021/04/16 16:27:12;;;;;;;5.53;2.20;;;;;;;;;;5071775;28;20190;-63
2021/04/16 16:29:39;;;;;;;4.67;2.43;;;;;;;;;;5078325;28;20188;-59
2021/04/16 16:32:10;;;;;;;2.30;2.10;;;;;;;;;;5065197;28;20192;-60
2021/04/16 16:34:37;;;;;;;5.77;2.37;;;;;;;;;;5079276;28;20176;-59
2021/04/16 16:37:03;;;;;;;4.17;2.20;;;;;;;;;;5058438;28;20238;-60
2021/04/16 16:39:29;;;;;;;2.27;2.07;;;;;;;;;;5075805;28;20530;-60
2021/04/16 16:41:56;;;;;;;2.70;2.07;;;;;;;;;;5056666;28;20267;-60
2021/04/16 16:44:25;;;;;;;2.70;1.93;;;;;;;;;;5082523;28;20172;-60
2021/04/16 16:46:52;;;;;;;4.27;2.27;;;;;;;;;;5086081;28;20177;-60
2021/04/16 16:49:20;;;;;;;3.33;1.97;;;;;;;;;;5062212;28;20192;-61
2021/04/16 16:51:46;;;;;;;2.20;2.00;;;;;;;;;;5063004;28;20639;-60
2021/04/16 16:54:12;;;;;;;2.80;1.98;;;;;;;;;;5075760;28;20070;-60
2021/04/16 16:56:39;;;;;;;3.73;2.00;;;;;;;;;;5088771;28;20221;-59
2021/04/16 16:59:05;;;;;;;2.77;1.77;;;;;;;;;;5071966;28;20176;-60
2021/04/16 17:01:33;;;;;;;2.90;1.80;;;;;;;;;;5065747;28;20251;-60
2021/04/16 17:03:59;;;;;;;2.70;1.87;;;;;;;;;;5079891;28;20654;-60
2021/04/16 17:06:26;;;;;;;7.83;2.03;;;;;;;;;;5066461;28;20192;-60
2021/04/16 17:08:52;;;;;;;3.03;2.00;;;;;;;;;;5078375;28;20179;-60
2021/04/16 17:11:20;;;;;;;2.17;2.00;;;;;;;;;;5085129;28;20183;-60